Time;durP1;ratioP1;P1;durP2;ratioP2;P2;SDS_P1;SDS_P2;PMS_P1;PMS_P2;Temp;Humidity;BMP_temperature;BMP_pressure;BME280_temperature;BME280_humidity;BME280_pressure;Samples;Min_cycle;Max_cycle;Signal;HPM_P1;HPM_P2
2023/04/27 00:00:51;;;;;;;7.43;4.05;;;;;;;;;;5095295;28;20485;-69
2023/04/27 00:03:17;;;;;;;6.82;4.53;;;;;;;;;;5098282;28;20085;-68
2023/04/27 00:05:43;;;;;;;6.32;4.07;;;;;;;;;;5098292;28;20040;-69
2023/04/27 00:08:10;;;;;;;9.38;4.55;;;;;;;;;;5094394;28;20035;-69
2023/04/27 00:10:36;;;;;;;7.97;4.10;;;;;;;;;;5103522;28;20115;-69
2023/04/27 00:13:02;;;;;;;7.88;4.88;;;;;;;;;;5102145;28;20066;-69
2023/04/27 00:15:28;;;;;;;6.97;4.32;;;;;;;;;;5103284;28;20393;-68
2023/04/27 00:17:54;;;;;;;9.25;4.28;;;;;;;;;;5103874;28;20162;-69
2023/04/27 00:20:20;;;;;;;7.60;4.47;;;;;;;;;;5102593;28;20032;-69
2023/04/27 00:22:46;;;;;;;10.52;4.38;;;;;;;;;;5092936;28;20091;-69
2023/04/27 00:25:12;;;;;;;6.68;4.60;;;;;;;;;;5102627;28;20100;-70
2023/04/27 00:27:39;;;;;;;7.13;3.92;;;;;;;;;;5098307;28;20042;-69
2023/04/27 00:30:06;;;;;;;7.38;3.63;;;;;;;;;;5092898;28;20677;-69
2023/04/27 00:32:32;;;;;;;8.68;4.75;;;;;;;;;;5091062;28;20071;-69
2023/04/27 00:34:58;;;;;;;6.60;4.53;;;;;;;;;;5095349;28;20106;-69
2023/04/27 00:37:24;;;;;;;7.07;4.95;;;;;;;;;;5088763;28;20111;-68
2023/04/27 00:39:50;;;;;;;11.75;4.93;;;;;;;;;;5096238;28;20047;-69
2023/04/27 00:42:18;;;;;;;10.63;4.82;;;;;;;;;;5090147;28;20071;-69
2023/04/27 00:44:45;;;;;;;9.50;4.40;;;;;;;;;;5090337;28;20044;-69
2023/04/27 00:47:11;;;;;;;9.73;4.38;;;;;;;;;;5102730;28;20078;-68
2023/04/27 00:49:38;;;;;;;8.45;4.38;;;;;;;;;;5094394;28;20043;-68
2023/04/27 00:52:04;;;;;;;8.85;5.63;;;;;;;;;;5101062;28;20149;-68
2023/04/27 00:54:31;;;;;;;7.50;4.68;;;;;;;;;;5091596;28;20111;-69
2023/04/27 00:56:58;;;;;;;7.35;4.75;;;;;;;;;;5099493;28;20500;-69
2023/04/27 00:59:24;;;;;;;7.05;4.70;;;;;;;;;;5101448;28;20040;-68
2023/04/27 01:01:50;;;;;;;9.02;5.15;;;;;;;;;;5090838;28;20115;-70
2023/04/27 01:04:17;;;;;;;8.07;4.70;;;;;;;;;;5091065;28;20071;-69
2023/04/27 01:06:43;;;;;;;9.93;4.38;;;;;;;;;;5098611;28;20442;-70
2023/04/27 01:09:09;;;;;;;12.52;5.63;;;;;;;;;;5096672;28;20142;-69
2023/04/27 01:11:36;;;;;;;7.80;4.95;;;;;;;;;;5089114;28;20136;-69
2023/04/27 01:14:05;;;;;;;9.10;5.00;;;;;;;;;;5102511;28;20485;-68
2023/04/27 01:16:32;;;;;;;8.07;4.85;;;;;;;;;;5099532;28;20043;-70
2023/04/27 01:18:58;;;;;;;7.95;5.45;;;;;;;;;;5091747;28;20047;-68
2023/04/27 01:21:25;;;;;;;7.55;5.38;;;;;;;;;;5090648;28;20486;-69
2023/04/27 01:23:51;;;;;;;7.68;4.95;;;;;;;;;;5098736;28;20065;-72
2023/04/27 01:26:17;;;;;;;8.50;4.85;;;;;;;;;;5098994;28;20129;-69
2023/04/27 01:28:44;;;;;;;8.45;5.15;;;;;;;;;;5099248;28;20039;-70
2023/04/27 01:31:10;;;;;;;8.00;5.40;;;;;;;;;;5089440;28;20036;-70
2023/04/27 01:33:37;;;;;;;8.95;4.55;;;;;;;;;;5098929;28;20046;-69
2023/04/27 01:36:03;;;;;;;6.88;4.65;;;;;;;;;;5096975;28;20115;-71
2023/04/27 01:38:29;;;;;;;7.97;4.75;;;;;;;;;;5101589;28;20473;-69
2023/04/27 01:41:00;;;;;;;10.48;5.38;;;;;;;;;;5098047;28;20521;-68
2023/04/27 01:43:27;;;;;;;9.07;5.22;;;;;;;;;;5091458;28;20036;-70
2023/04/27 01:45:53;;;;;;;7.85;5.05;;;;;;;;;;5095513;28;20039;-69
2023/04/27 01:48:20;;;;;;;7.63;5.35;;;;;;;;;;5103574;28;20051;-69
2023/04/27 01:50:46;;;;;;;8.27;5.10;;;;;;;;;;5099329;28;20487;-69
2023/04/27 01:53:12;;;;;;;9.20;5.03;;;;;;;;;;5106314;28;20212;-68
2023/04/27 01:55:38;;;;;;;10.07;5.07;;;;;;;;;;5100713;28;20024;-70
2023/04/27 01:58:04;;;;;;;10.27;5.03;;;;;;;;;;5091757;28;20032;-68
2023/04/27 02:00:31;;;;;;;11.05;5.47;;;;;;;;;;5095208;28;20039;-69
2023/04/27 02:02:59;;;;;;;10.13;5.45;;;;;;;;;;5088580;28;20040;-69
2023/04/27 02:05:25;;;;;;;7.05;5.18;;;;;;;;;;5099859;28;20517;-69
2023/04/27 02:07:51;;;;;;;8.30;5.03;;;;;;;;;;5092959;28;20176;-69
2023/04/27 02:10:17;;;;;;;8.55;5.00;;;;;;;;;;5094126;28;20435;-68
2023/04/27 02:12:43;;;;;;;8.88;5.10;;;;;;;;;;5098186;28;20067;-68
2023/04/27 02:15:09;;;;;;;9.80;6.30;;;;;;;;;;5101929;28;20046;-68
2023/04/27 02:17:36;;;;;;;9.02;5.28;;;;;;;;;;5106524;28;20047;-69
2023/04/27 02:20:05;;;;;;;8.75;5.93;;;;;;;;;;5108303;28;20039;-69
2023/04/27 02:22:31;;;;;;;7.82;4.65;;;;;;;;;;5099004;28;20085;-69
2023/04/27 02:24:58;;;;;;;11.45;5.72;;;;;;;;;;5095106;28;20055;-68
2023/04/27 02:27:25;;;;;;;7.47;5.05;;;;;;;;;;5102414;28;20039;-68
2023/04/27 02:29:51;;;;;;;7.47;5.35;;;;;;;;;;5106291;28;20123;-68
2023/04/27 02:32:17;;;;;;;8.57;5.72;;;;;;;;;;5098260;28;20458;-68
2023/04/27 02:34:44;;;;;;;11.05;5.20;;;;;;;;;;5094220;28;20101;-69
2023/04/27 02:37:10;;;;;;;7.85;5.10;;;;;;;;;;5104705;28;20039;-68
2023/04/27 02:39:36;;;;;;;9.10;4.78;;;;;;;;;;5096398;28;20547;-68
2023/04/27 02:42:02;;;;;;;6.10;4.57;;;;;;;;;;5093275;28;20044;-69
2023/04/27 02:44:29;;;;;;;17.83;5.95;;;;;;;;;;5094813;28;20035;-69
2023/04/27 02:46:55;;;;;;;9.73;5.85;;;;;;;;;;5102254;28;20520;-69
2023/04/27 02:49:21;;;;;;;8.02;4.97;;;;;;;;;;5101600;28;20152;-69
2023/04/27 02:51:47;;;;;;;10.52;6.82;;;;;;;;;;5102000;28;20036;-68
2023/04/27 02:54:13;;;;;;;9.02;6.45;;;;;;;;;;5102139;28;20040;-68
2023/04/27 02:56:39;;;;;;;8.90;6.15;;;;;;;;;;5095721;28;20040;-69
2023/04/27 02:59:06;;;;;;;8.73;4.85;;;;;;;;;;5093697;28;20453;-70
2023/04/27 03:01:32;;;;;;;12.63;6.00;;;;;;;;;;5099926;28;20374;-70
2023/04/27 03:03:58;;;;;;;13.15;6.25;;;;;;;;;;5092070;28;20397;-68
2023/04/27 03:06:24;;;;;;;11.70;5.68;;;;;;;;;;5087246;28;20043;-69
2023/04/27 03:08:50;;;;;;;11.15;5.47;;;;;;;;;;5096466;28;20151;-69
2023/04/27 03:11:16;;;;;;;8.18;5.38;;;;;;;;;;5097120;28;20071;-69
2023/04/27 03:13:42;;;;;;;9.05;5.95;;;;;;;;;;5098861;28;20565;-69
2023/04/27 03:16:12;;;;;;;11.93;6.47;;;;;;;;;;5105653;28;20175;-69
2023/04/27 03:18:38;;;;;;;10.15;5.43;;;;;;;;;;5095176;28;20493;-69
2023/04/27 03:21:08;;;;;;;8.00;5.72;;;;;;;;;;5092609;28;20035;-69
2023/04/27 03:23:34;;;;;;;8.48;5.90;;;;;;;;;;5097745;28;20552;-69
2023/04/27 03:26:01;;;;;;;8.80;5.80;;;;;;;;;;5099810;28;20264;-69
2023/04/27 03:28:27;;;;;;;11.48;5.60;;;;;;;;;;5097999;28;20036;-69
2023/04/27 03:30:53;;;;;;;8.52;6.05;;;;;;;;;;5109652;28;20067;-69
2023/04/27 03:33:20;;;;;;;9.85;6.03;;;;;;;;;;5101737;28;20392;-69
2023/04/27 03:35:54;;;;;;;12.68;6.40;;;;;;;;;;5102392;28;20127;-70
2023/04/27 03:38:20;;;;;;;8.13;5.57;;;;;;;;;;5094259;27;20436;-69
2023/04/27 03:40:46;;;;;;;12.02;5.80;;;;;;;;;;5094464;28;20040;-69
2023/04/27 03:43:12;;;;;;;8.98;5.72;;;;;;;;;;5098033;28;20123;-69
2023/04/27 03:45:38;;;;;;;9.35;5.05;;;;;;;;;;5096917;28;20136;-69
2023/04/27 03:48:05;;;;;;;11.15;6.32;;;;;;;;;;5091846;28;20048;-70
2023/04/27 03:50:31;;;;;;;11.50;5.85;;;;;;;;;;5099552;28;20043;-69
2023/04/27 03:52:57;;;;;;;10.25;5.80;;;;;;;;;;5107593;28;20039;-69
2023/04/27 03:55:24;;;;;;;12.95;6.18;;;;;;;;;;5093539;28;20510;-69
2023/04/27 03:57:51;;;;;;;13.65;6.10;;;;;;;;;;5094704;28;20082;-69
2023/04/27 04:00:17;;;;;;;10.43;5.50;;;;;;;;;;5106441;28;20096;-69
2023/04/27 04:02:43;;;;;;;7.93;5.18;;;;;;;;;;5102390;28;20127;-69
2023/04/27 04:05:11;;;;;;;8.85;5.75;;;;;;;;;;5095712;28;20040;-70
2023/04/27 04:07:37;;;;;;;9.25;5.15;;;;;;;;;;5093297;28;20108;-70
2023/04/27 04:10:03;;;;;;;9.73;5.15;;;;;;;;;;5102282;28;20032;-70
2023/04/27 04:12:30;;;;;;;11.02;6.30;;;;;;;;;;5103204;28;20032;-69
2023/04/27 04:14:56;;;;;;;9.43;5.85;;;;;;;;;;5094078;28;20505;-70
2023/04/27 04:17:22;;;;;;;7.32;5.38;;;;;;;;;;5102253;28;20114;-70
2023/04/27 04:19:48;;;;;;;10.25;5.20;;;;;;;;;;5092980;28;20118;-69
2023/04/27 04:22:14;;;;;;;7.57;4.78;;;;;;;;;;5103383;28;20031;-69
2023/04/27 04:24:40;;;;;;;13.68;5.47;;;;;;;;;;5095188;28;20104;-69
2023/04/27 04:27:07;;;;;;;9.18;4.85;;;;;;;;;;5090179;28;20040;-69
2023/04/27 04:29:33;;;;;;;12.70;5.28;;;;;;;;;;5101488;28;20044;-69
2023/04/27 04:31:59;;;;;;;6.93;4.28;;;;;;;;;;5095060;28;20077;-69
2023/04/27 04:34:28;;;;;;;8.55;5.35;;;;;;;;;;5093552;28;20035;-70
2023/04/27 04:36:56;;;;;;;8.68;5.32;;;;;;;;;;5102416;28;20044;-69
2023/04/27 04:39:22;;;;;;;8.20;4.63;;;;;;;;;;5095832;28;20519;-71
2023/04/27 04:41:49;;;;;;;9.80;5.05;;;;;;;;;;5099007;28;20119;-69
2023/04/27 04:44:15;;;;;;;10.13;5.40;;;;;;;;;;5090283;28;20058;-70
2023/04/27 04:46:42;;;;;;;13.88;4.63;;;;;;;;;;5100503;28;20155;-70
2023/04/27 04:49:08;;;;;;;8.10;4.75;;;;;;;;;;5097092;28;20066;-70
2023/04/27 04:51:35;;;;;;;11.63;5.43;;;;;;;;;;5100846;28;20119;-69
2023/04/27 04:54:01;;;;;;;8.95;5.28;;;;;;;;;;5092325;28;20040;-71
2023/04/27 04:56:27;;;;;;;7.95;5.15;;;;;;;;;;5101773;28;20079;-68
2023/04/27 04:58:53;;;;;;;8.38;5.68;;;;;;;;;;5097899;28;20081;-69
2023/04/27 05:01:19;;;;;;;9.80;6.00;;;;;;;;;;5095506;28;20122;-69
2023/04/27 05:03:46;;;;;;;8.45;4.60;;;;;;;;;;5088983;28;20091;-70
2023/04/27 05:06:12;;;;;;;7.10;5.50;;;;;;;;;;5102310;28;20042;-70
2023/04/27 05:08:38;;;;;;;9.75;6.50;;;;;;;;;;5094524;28;20115;-70
2023/04/27 05:11:04;;;;;;;9.35;5.70;;;;;;;;;;5095022;28;20054;-69
2023/04/27 05:13:30;;;;;;;10.55;6.28;;;;;;;;;;5095525;28;20044;-70
2023/04/27 05:15:57;;;;;;;9.52;5.78;;;;;;;;;;5105464;28;20127;-69
2023/04/27 05:18:23;;;;;;;14.25;6.55;;;;;;;;;;5099128;28;20051;-68
2023/04/27 05:20:49;;;;;;;8.60;5.70;;;;;;;;;;5081413;28;20059;-69
2023/04/27 05:23:15;;;;;;;12.60;6.75;;;;;;;;;;5102711;28;20390;-69
2023/04/27 05:25:41;;;;;;;9.95;6.20;;;;;;;;;;5104000;28;20092;-69
2023/04/27 05:28:08;;;;;;;9.73;5.65;;;;;;;;;;5088664;28;20040;-69
2023/04/27 05:30:34;;;;;;;8.23;5.43;;;;;;;;;;5092066;28;20044;-69
2023/04/27 05:33:01;;;;;;;9.70;5.55;;;;;;;;;;5091307;28;20039;-69
2023/04/27 05:35:27;;;;;;;8.40;5.28;;;;;;;;;;5096607;28;20088;-69
2023/04/27 05:37:54;;;;;;;20.35;6.38;;;;;;;;;;5098666;28;20043;-69
2023/04/27 05:40:20;;;;;;;9.90;5.68;;;;;;;;;;5091910;28;20048;-70
2023/04/27 05:42:46;;;;;;;10.52;5.93;;;;;;;;;;5105007;28;20505;-69
2023/04/27 05:45:13;;;;;;;9.90;5.13;;;;;;;;;;5101334;28;20055;-69
2023/04/27 05:47:39;;;;;;;10.65;6.10;;;;;;;;;;5100701;28;20052;-70
2023/04/27 05:50:05;;;;;;;8.02;5.80;;;;;;;;;;5096432;28;20497;-69
2023/04/27 05:52:31;;;;;;;8.63;5.60;;;;;;;;;;5097887;28;20036;-69
2023/04/27 05:54:58;;;;;;;7.55;4.90;;;;;;;;;;5102434;28;20384;-68
2023/04/27 05:57:25;;;;;;;11.45;5.13;;;;;;;;;;5097394;28;20093;-69
2023/04/27 05:59:51;;;;;;;7.82;5.32;;;;;;;;;;5094351;28;20032;-68
2023/04/27 06:02:18;;;;;;;9.30;5.82;;;;;;;;;;5108563;28;20035;-68
2023/04/27 06:04:45;;;;;;;11.60;5.32;;;;;;;;;;5103741;28;20040;-69
2023/04/27 06:07:11;;;;;;;8.25;6.03;;;;;;;;;;5091254;28;20097;-68
2023/04/27 06:09:38;;;;;;;7.78;5.65;;;;;;;;;;5091963;28;20118;-69
2023/04/27 06:12:07;;;;;;;10.82;6.05;;;;;;;;;;5106136;28;20092;-68
2023/04/27 06:14:34;;;;;;;13.07;6.93;;;;;;;;;;5100406;28;20032;-69
2023/04/27 06:17:01;;;;;;;10.55;6.65;;;;;;;;;;5107046;28;20039;-69
2023/04/27 06:19:27;;;;;;;11.30;5.88;;;;;;;;;;5098903;28;20047;-68
2023/04/27 06:21:54;;;;;;;9.30;5.93;;;;;;;;;;5102237;28;20043;-68
2023/04/27 06:24:21;;;;;;;7.63;4.95;;;;;;;;;;5104882;28;20150;-69
2023/04/27 06:26:47;;;;;;;6.68;4.82;;;;;;;;;;5092561;28;20048;-69
2023/04/27 06:29:13;;;;;;;8.85;6.00;;;;;;;;;;5103207;28;20032;-69
2023/04/27 06:31:40;;;;;;;8.85;5.22;;;;;;;;;;5107528;28;20036;-68
2023/04/27 06:34:06;;;;;;;7.60;4.93;;;;;;;;;;5093874;28;20036;-68
2023/04/27 06:36:32;;;;;;;10.15;5.35;;;;;;;;;;5103925;28;20594;-70
2023/04/27 06:38:58;;;;;;;8.80;4.85;;;;;;;;;;5103813;28;20036;-68
2023/04/27 06:41:25;;;;;;;6.70;4.55;;;;;;;;;;5100572;28;20485;-69
2023/04/27 06:43:52;;;;;;;7.28;4.57;;;;;;;;;;5094195;28;20032;-69
2023/04/27 06:46:18;;;;;;;7.50;5.65;;;;;;;;;;5101716;28;20416;-69
2023/04/27 06:48:45;;;;;;;5.82;3.92;;;;;;;;;;5100033;28;20048;-70
2023/04/27 06:51:11;;;;;;;7.30;4.85;;;;;;;;;;5101417;28;20043;-69
2023/04/27 06:53:38;;;;;;;8.20;3.67;;;;;;;;;;5093328;28;20059;-69
2023/04/27 06:56:04;;;;;;;5.10;3.10;;;;;;;;;;5101187;28;20481;-69
2023/04/27 06:58:31;;;;;;;6.15;4.15;;;;;;;;;;5096799;28;20043;-69
2023/04/27 07:00:57;;;;;;;6.03;3.42;;;;;;;;;;5105082;28;20189;-69
2023/04/27 07:03:23;;;;;;;8.15;3.25;;;;;;;;;;5092705;28;20774;-69
2023/04/27 07:05:50;;;;;;;4.95;3.00;;;;;;;;;;5106395;28;20032;-68
2023/04/27 07:08:16;;;;;;;6.90;2.97;;;;;;;;;;5102183;28;20473;-69
2023/04/27 07:10:42;;;;;;;6.53;3.75;;;;;;;;;;5095288;28;20482;-69
2023/04/27 07:13:08;;;;;;;7.28;3.28;;;;;;;;;;5098813;28;20077;-70
2023/04/27 07:15:35;;;;;;;5.18;3.25;;;;;;;;;;5103610;27;20450;-69
2023/04/27 07:18:01;;;;;;;7.00;2.53;;;;;;;;;;5095538;28;20048;-69
2023/04/27 07:20:27;;;;;;;11.25;2.83;;;;;;;;;;5094332;28;20432;-69
2023/04/27 07:22:53;;;;;;;5.55;2.90;;;;;;;;;;5108205;28;20122;-69
2023/04/27 07:25:20;;;;;;;5.00;2.17;;;;;;;;;;5096422;28;20043;-70
2023/04/27 07:27:46;;;;;;;3.85;2.28;;;;;;;;;;5099782;28;20040;-70
2023/04/27 07:30:13;;;;;;;4.82;2.50;;;;;;;;;;5094607;28;20062;-70
2023/04/27 07:32:43;;;;;;;3.85;2.25;;;;;;;;;;5106641;28;20512;-70
2023/04/27 07:35:09;;;;;;;5.30;2.83;;;;;;;;;;5101957;28;20043;-68
2023/04/27 07:37:37;;;;;;;4.38;2.97;;;;;;;;;;5093953;28;20037;-69
2023/04/27 07:40:36;;;;;;;6.10;2.30;;;;;;;;;;5092389;28;20040;-70
2023/04/27 07:42:57;;;;;;;9.52;3.80;;;;;;;;;;5093840;28;20047;-69
2023/04/27 07:45:30;;;;;;;5.40;3.10;;;;;;;;;;5098011;28;20097;-70
2023/04/27 07:47:57;;;;;;;5.35;3.10;;;;;;;;;;5095620;28;20124;-70
2023/04/27 07:50:24;;;;;;;5.70;2.92;;;;;;;;;;5094451;28;20077;-69
2023/04/27 07:52:51;;;;;;;5.82;2.90;;;;;;;;;;5108415;28;20488;-70
2023/04/27 07:55:17;;;;;;;6.97;2.92;;;;;;;;;;5095723;28;20039;-70
2023/04/27 07:57:43;;;;;;;5.70;3.20;;;;;;;;;;5095784;28;20036;-70
2023/04/27 08:00:10;;;;;;;7.25;3.05;;;;;;;;;;5107782;28;20508;-69
2023/04/27 08:02:36;;;;;;;5.30;2.72;;;;;;;;;;5103295;28;20032;-69
2023/04/27 08:05:03;;;;;;;5.47;3.05;;;;;;;;;;5095543;28;20032;-69
2023/04/27 08:07:30;;;;;;;5.65;2.60;;;;;;;;;;5094345;28;20043;-70
2023/04/27 08:09:57;;;;;;;4.75;2.90;;;;;;;;;;5085591;28;20039;-70
2023/04/27 08:12:23;;;;;;;8.38;2.88;;;;;;;;;;5095895;28;20750;-70
2023/04/27 08:14:49;;;;;;;6.72;3.45;;;;;;;;;;5093707;28;20039;-70
2023/04/27 08:17:17;;;;;;;5.30;2.38;;;;;;;;;;5098769;28;20075;-69
2023/04/27 08:19:43;;;;;;;7.50;2.53;;;;;;;;;;5105153;28;20044;-69
2023/04/27 08:22:09;;;;;;;4.60;2.40;;;;;;;;;;5104488;28;20096;-70
2023/04/27 08:24:36;;;;;;;6.50;2.80;;;;;;;;;;5095635;28;20387;-70
2023/04/27 08:27:02;;;;;;;3.47;2.30;;;;;;;;;;5091051;28;20092;-70
2023/04/27 08:29:28;;;;;;;4.07;2.72;;;;;;;;;;5106508;28;20044;-69
2023/04/27 08:31:55;;;;;;;8.55;2.97;;;;;;;;;;5092371;28;20570;-69
2023/04/27 08:34:21;;;;;;;5.65;3.00;;;;;;;;;;5092390;28;20097;-70
2023/04/27 08:36:47;;;;;;;4.75;2.15;;;8.70;99.70;;;;;;5090031;28;20123;-70
2023/04/27 08:39:12;;;;;;;4.72;3.00;;;8.90;99.90;;;;;;5096752;28;20115;-70
2023/04/27 08:41:42;;;;;;;4.85;2.63;;;;;;;;;;5097242;28;20046;-69
2023/04/27 08:44:08;;;;;;;4.78;2.55;;;;;;;;;;5090846;28;20413;-70
2023/04/27 08:46:36;;;;;;;4.53;2.63;;;;;;;;;;5097127;28;20040;-70
2023/04/27 08:49:02;;;;;;;2.90;2.28;;;;;;;;;;5098420;28;20211;-70
2023/04/27 08:51:30;;;;;;;3.28;2.10;;;;;;;;;;5101171;28;20036;-70
2023/04/27 08:53:57;;;;;;;3.70;2.70;;;;;;;;;;5091216;28;20129;-69
2023/04/27 08:56:25;;;;;;;3.00;2.30;;;;;;;;;;5092272;28;20039;-71
2023/04/27 08:58:51;;;;;;;4.68;2.20;;;;;;;;;;5099371;28;20096;-70
2023/04/27 09:01:17;;;;;;;4.75;2.95;;;;;;;;;;5098892;28;20042;-70
2023/04/27 09:03:45;;;;;;;3.75;2.25;;;;;;;;;;5101686;28;20044;-70
2023/04/27 09:06:12;;;;;;;5.18;2.65;;;;;;;;;;5107101;28;20493;-69
2023/04/27 09:08:41;;;;;;;9.80;2.78;;;;;;;;;;5095572;28;20109;-71
2023/04/27 09:11:08;;;;;;;4.40;2.47;;;;;;;;;;5091452;28;20039;-70
2023/04/27 09:13:44;;;;;;;3.25;2.28;;;;;;;;;;5091483;28;20035;-70
2023/04/27 09:16:13;;;;;;;4.05;2.30;;;;;;;;;;5096610;28;20516;-69
2023/04/27 09:18:41;;;;;;;5.20;2.42;;;;;;;;;;5093080;28;20131;-70
2023/04/27 09:21:07;;;;;;;4.28;2.15;;;;;;;;;;5095185;28;20048;-69
2023/04/27 09:23:34;;;;;;;6.82;2.22;;;;;;;;;;5097418;28;20043;-70
2023/04/27 09:26:02;;;;;;;5.20;2.80;;;;;;;;;;5102820;28;20115;-69
2023/04/27 09:28:31;;;;;;;4.25;2.90;;;8.90;99.90;;;;;;5096497;28;20044;-69
2023/04/27 09:31:02;;;;;;;4.30;3.08;;;9.70;99.90;;;;;;5093709;28;20036;-70
2023/04/27 09:33:29;;;;;;;5.28;3.55;;;;;;;;;;5098604;28;20047;-69
2023/04/27 09:35:56;;;;;;;4.95;3.60;;;;;;;;;;5099199;28;20401;-69
2023/04/27 09:38:22;;;;;;;5.13;3.47;;;;;;;;;;5095509;28;20132;-69
2023/04/27 09:40:49;;;;;;;4.25;3.25;;;;;;;;;;5094619;28;20429;-69
2023/04/27 09:43:15;;;;;;;7.35;3.20;;;;;;;;;;5105249;28;20035;-69
2023/04/27 09:45:42;;;;;;;5.82;2.97;;;;;;;;;;5100813;28;20036;-69
2023/04/27 09:48:09;;;;;;;6.00;3.10;;;;;;;;;;5092444;28;20055;-70
2023/04/27 09:50:36;;;;;;;6.60;3.03;;;;;;;;;;5093067;28;20527;-69
2023/04/27 09:53:04;;;;;;;4.90;2.97;;;;;;;;;;5099841;28;20046;-69
2023/04/27 09:55:33;;;;;;;11.15;3.42;;;;;;;;;;5096804;28;20134;-68
2023/04/27 09:58:10;;;;;;;4.60;2.88;;;;;;;;;;5094583;28;20115;-69
2023/04/27 10:00:58;;;;;;;6.47;3.70;;;;;;;;;;5097639;28;20048;-70
2023/04/27 10:03:40;;;;;;;6.88;3.28;;;;;;;;;;5088302;28;20036;-69
2023/04/27 10:06:06;;;;;;;5.75;3.72;;;;;;;;;;5098447;28;20071;-69
2023/04/27 10:08:34;;;;;;;5.97;3.55;;;;;;;;;;5088178;28;20087;-69
2023/04/27 10:11:00;;;;;;;5.25;3.85;;;10.60;98.70;;;;;;5100704;28;20135;-69
2023/04/27 10:13:26;;;;;;;5.50;3.10;;;;;;;;;;5097016;28;20289;-69
2023/04/27 10:15:53;;;;;;;4.47;3.05;;;;;;;;;;5101483;28;20520;-69
2023/04/27 10:18:26;;;;;;;4.93;2.80;;;;;;;;;;5101316;28;20089;-69
2023/04/27 10:20:52;;;;;;;6.75;3.78;;;;;;;;;;5099179;28;20039;-69
2023/04/27 10:23:25;;;;;;;4.93;3.20;;;10.60;99.00;;;;;;5095556;28;20472;-69
2023/04/27 10:25:53;;;;;;;6.55;3.67;;;10.80;98.50;;;;;;5100178;28;20066;-69
2023/04/27 10:28:21;;;;;;;7.15;3.90;;;10.80;98.40;;;;;;5095245;28;20042;-70
2023/04/27 10:30:48;;;;;;;7.03;3.08;;;10.90;98.50;;;;;;5089760;28;20047;-69
2023/04/27 10:33:20;;;;;;;4.82;3.17;;;10.90;98.60;;;;;;5093660;28;20111;-70
2023/04/27 10:36:13;;;;;;;7.82;3.80;;;10.90;98.20;;;;;;5092445;28;20040;-69
2023/04/27 10:38:40;;;;;;;6.95;3.63;;;10.90;98.30;;;;;;5092107;28;20119;-70
2023/04/27 10:41:13;;;;;;;5.82;3.28;;;11.00;98.50;;;;;;5098839;28;20079;-70
2023/04/27 10:43:39;;;;;;;5.10;3.17;;;11.00;98.10;;;;;;5093431;28;20079;-69
2023/04/27 10:46:13;;;;;;;6.05;4.25;;;11.10;98.10;;;;;;5100882;28;20035;-69
2023/04/27 10:48:40;;;;;;;10.50;4.60;;;11.10;97.60;;;;;;5096335;28;20458;-69
2023/04/27 10:51:06;;;;;;;7.90;3.42;;;11.10;97.80;;;;;;5104018;28;20473;-69
2023/04/27 10:53:36;;;;;;;9.32;3.70;;;11.10;97.60;;;;;;5101208;28;20043;-69
2023/04/27 10:56:05;;;;;;;6.22;3.88;;;11.10;97.40;;;;;;5092369;28;20086;-69
2023/04/27 10:58:32;;;;;;;10.18;4.75;;;11.00;97.30;;;;;;5097842;28;20093;-69
2023/04/27 11:00:58;;;;;;;5.10;2.90;;;11.10;97.60;;;;;;5101340;28;20119;-69
2023/04/27 11:03:24;;;;;;;4.45;3.13;;;11.10;97.30;;;;;;5098917;28;20509;-69
2023/04/27 11:06:04;;;;;;;6.60;3.72;;;11.10;97.30;;;;;;5110961;27;20035;-68
2023/04/27 11:08:32;;;;;;;7.80;3.65;;;11.10;97.10;;;;;;5098376;28;20448;-68
2023/04/27 11:10:58;;;;;;;4.32;3.03;;;11.00;97.20;;;;;;5100497;28;20583;-67
2023/04/27 11:13:27;;;;;;;7.03;3.67;;;11.00;97.10;;;;;;5107232;28;20058;-69
2023/04/27 11:15:58;;;;;;;5.38;3.55;;;11.00;97.30;;;;;;5108529;27;20458;-69
2023/04/27 11:18:27;;;;;;;7.35;3.92;;;11.00;97.10;;;;;;5095020;28;20040;-68
2023/04/27 11:21:06;;;;;;;4.55;2.95;;;11.00;97.40;;;;;;5100283;28;20039;-68
2023/04/27 11:23:38;;;;;;;7.75;4.28;;;11.00;97.30;;;;;;5109169;28;20039;-69
2023/04/27 11:26:18;;;;;;;4.30;2.97;;;11.00;97.20;;;;;;5104022;28;20044;-69
2023/04/27 11:28:58;;;;;;;6.50;3.55;;;11.00;96.80;;;;;;5096251;28;20114;-69
2023/04/27 11:31:37;;;;;;;3.95;2.80;;;10.90;96.30;;;;;;5101301;28;20097;-70
2023/04/27 11:34:02;;;;;;;5.32;3.35;;;10.90;96.80;;;;;;5091366;28;20093;-68
2023/04/27 11:36:28;;;;;;;9.40;4.18;;;10.90;96.80;;;;;;5094635;28;20377;-68
2023/04/27 11:38:58;;;;;;;6.15;3.20;;;10.80;96.50;;;;;;5095240;28;20039;-69
2023/04/27 11:41:33;;;;;;;6.82;3.33;;;10.80;96.60;;;;;;5092849;28;20032;-68
2023/04/27 11:44:09;;;;;;;6.45;2.83;;;10.80;96.70;;;;;;5099616;28;20047;-68
2023/04/27 11:46:36;;;;;;;4.65;3.47;;;10.80;96.40;;;;;;5094579;28;20142;-69
2023/04/27 11:49:04;;;;;;;5.82;3.25;;;10.80;96.40;;;;;;5094854;28;20237;-68
2023/04/27 11:51:33;;;;;;;5.97;3.38;;;10.80;96.70;;;;;;5108047;28;20039;-69
2023/04/27 11:54:04;;;;;;;5.32;3.13;;;10.80;96.60;;;;;;5091601;28;20081;-68
2023/04/27 11:56:38;;;;;;;5.50;3.13;;;10.80;96.70;;;;;;5098830;28;20114;-68
2023/04/27 11:59:04;;;;;;;7.55;3.40;;;10.80;96.80;;;;;;5095859;28;20036;-68
2023/04/27 12:01:32;;;;;;;11.90;4.18;;;10.80;96.70;;;;;;5103679;28;20470;-68
2023/04/27 12:04:00;;;;;;;8.13;3.20;;;10.80;97.10;;;;;;5102763;28;20062;-69
2023/04/27 12:06:27;;;;;;;6.68;3.00;;;10.80;98.00;;;;;;5096086;28;20048;-69
2023/04/27 12:08:56;;;;;;;4.15;3.03;;;10.90;98.90;;;;;;5090487;28;20063;-69
2023/04/27 12:11:28;;;;;;;6.63;3.65;;;10.90;99.40;;;;;;5097060;28;20036;-69
2023/04/27 12:13:55;;;;;;;5.50;3.30;;;11.00;99.60;;;;;;5101208;28;20073;-69
2023/04/27 12:16:21;;;;;;;5.47;3.20;;;10.90;99.70;;;;;;5099057;28;20114;-69
2023/04/27 12:18:51;;;;;;;4.80;3.05;;;11.00;99.70;;;;;;5099373;28;20040;-69
2023/04/27 12:21:17;;;;;;;5.10;2.95;;;11.00;99.80;;;;;;5092836;28;20524;-69
2023/04/27 12:23:43;;;;;;;6.75;3.95;;;11.00;99.90;;;;;;5093134;28;20105;-69
2023/04/27 12:26:11;;;;;;;6.25;3.42;;;11.00;99.90;;;;;;5093326;28;20032;-70
2023/04/27 12:28:37;;;;;;;7.03;3.13;;;11.10;99.90;;;;;;5100358;28;20052;-69
2023/04/27 12:31:03;;;;;;;9.43;4.22;;;11.10;99.90;;;;;;5099087;28;20443;-69
2023/04/27 12:33:30;;;;;;;6.60;3.55;;;11.10;99.80;;;;;;5097672;28;20074;-69
2023/04/27 12:35:56;;;;;;;9.40;3.78;;;11.00;99.80;;;;;;5094638;28;20085;-69
2023/04/27 12:38:22;;;;;;;5.25;3.42;;;11.00;99.80;;;;;;5090400;28;20565;-68
2023/04/27 12:40:48;;;;;;;6.88;4.13;;;11.10;99.80;;;;;;5093264;28;20040;-69
2023/04/27 12:43:14;;;;;;;4.63;3.15;;;11.00;99.90;;;;;;5093662;28;20409;-69
2023/04/27 12:45:40;;;;;;;7.75;3.65;;;11.10;99.90;;;;;;5090853;28;20113;-69
2023/04/27 12:48:07;;;;;;;6.60;3.53;;;11.10;99.90;;;;;;5098093;28;20112;-69
2023/04/27 12:50:35;;;;;;;15.35;4.88;;;11.20;99.90;;;;;;5097918;28;20055;-69
2023/04/27 12:53:01;;;;;;;4.97;3.47;;;11.20;99.90;;;;;;5092914;28;20036;-69
2023/04/27 12:55:27;;;;;;;7.43;3.88;;;11.20;99.90;;;;;;5098644;27;20035;-69
2023/04/27 12:57:53;;;;;;;6.05;3.70;;;11.20;99.70;;;;;;5098130;28;20459;-69
2023/04/27 13:00:19;;;;;;;7.20;3.85;;;11.30;99.50;;;;;;5099720;28;20039;-69
2023/04/27 13:02:45;;;;;;;5.90;4.03;;;11.30;99.40;;;;;;5094721;28;20043;-69
2023/04/27 13:05:11;;;;;;;5.97;3.53;;;11.30;99.50;;;;;;5098274;28;20031;-70
2023/04/27 13:07:37;;;;;;;8.05;4.20;;;11.40;99.30;;;;;;5105450;28;20035;-69
2023/04/27 13:10:03;;;;;;;8.13;4.18;;;11.40;99.30;;;;;;5090143;28;20034;-69
2023/04/27 13:12:29;;;;;;;5.25;3.97;;;11.40;99.40;;;;;;5092757;28;20500;-69
2023/04/27 13:14:55;;;;;;;10.52;4.40;;;11.40;99.20;;;;;;5093347;28;20032;-69
2023/04/27 13:17:21;;;;;;;6.72;3.65;;;11.40;99.00;;;;;;5100977;28;20116;-69
2023/04/27 13:19:47;;;;;;;6.55;3.28;;;11.50;98.70;;;;;;5093706;28;20032;-68
2023/04/27 13:22:13;;;;;;;5.57;3.97;;;11.60;98.80;;;;;;5090926;28;20482;-69
2023/04/27 13:24:38;;;;;;;9.05;3.85;;;11.60;98.60;;;;;;5094717;28;20082;-69
2023/04/27 13:27:04;;;;;;;6.78;3.53;;;11.60;98.40;;;;;;5085090;28;20108;-69
2023/04/27 13:29:30;;;;;;;6.50;4.32;;;11.50;98.10;;;;;;5098818;28;20029;-69
2023/04/27 13:31:56;;;;;;;12.02;5.30;;;11.60;98.00;;;;;;5090529;28;20504;-69
2023/04/27 13:34:22;;;;;;;7.18;4.13;;;11.50;97.80;;;;;;5101924;28;20043;-69
2023/04/27 13:36:48;;;;;;;6.50;3.50;;;11.50;97.70;;;;;;5100695;28;20044;-69
2023/04/27 13:39:15;;;;;;;5.57;4.05;;;11.50;97.50;;;;;;5089297;28;20028;-69
2023/04/27 13:41:41;;;;;;;6.88;3.88;;;11.50;97.30;;;;;;5089274;28;20040;-69
2023/04/27 13:44:07;;;;;;;8.02;3.65;;;11.50;97.20;;;;;;5099592;28;20036;-69
2023/04/27 13:46:32;;;;;;;9.70;3.60;;;11.50;97.10;;;;;;5098059;28;20036;-69
2023/04/27 13:48:58;;;;;;;9.95;4.22;;;11.50;96.90;;;;;;5100536;28;20044;-69
2023/04/27 13:51:25;;;;;;;7.10;4.60;;;11.50;96.70;;;;;;5098169;28;20047;-69
2023/04/27 13:53:51;;;;;;;6.43;3.78;;;11.50;97.00;;;;;;5094617;28;20553;-70
2023/04/27 13:56:17;;;;;;;4.65;3.47;;;11.50;97.00;;;;;;5093903;28;20262;-68
2023/04/27 13:58:42;;;;;;;4.38;3.17;;;11.60;97.30;;;;;;5093266;28;20493;-69
2023/04/27 14:01:08;;;;;;;5.47;4.00;;;11.60;97.70;;;;;;5088388;28;20036;-69
2023/04/27 14:03:34;;;;;;;6.10;3.30;;;11.70;98.00;;;;;;5099064;28;20567;-69
2023/04/27 14:06:00;;;;;;;6.10;3.30;;;11.70;98.10;;;;;;5104237;28;20039;-69